createdAt,value
2019-03-29T00:00:01.545Z,111.01
2019-03-29T00:01:01.499Z,90.00
2019-03-29T00:02:01.508Z,115.99
2019-03-29T00:03:01.527Z,137.86
2019-03-29T00:04:01.479Z,135.00
2019-03-29T00:05:01.485Z,135.00
2019-03-29T00:06:01.578Z,135.00
2019-03-29T00:07:01.503Z,135.00
2019-03-29T00:08:01.515Z,135.00
2019-03-29T00:09:02.103Z,135.00
2019-03-29T00:10:01.486Z,135.00
2019-03-29T00:11:01.533Z,135.00
2019-03-29T00:12:01.546Z,135.00
2019-03-29T00:13:01.538Z,135.00
2019-03-29T00:14:01.515Z,135.00
2019-03-29T00:15:01.538Z,144.12
2019-03-29T00:16:01.514Z,180.00
2019-03-29T00:17:01.502Z,180.00
2019-03-29T00:18:01.557Z,150.05
2019-03-29T00:19:02.062Z,135.00
2019-03-29T00:20:01.521Z,135.00
2019-03-29T00:21:01.530Z,135.00
2019-03-29T00:22:01.510Z,135.00
2019-03-29T00:23:01.548Z,135.00
2019-03-29T00:24:06.918Z,107.00
2019-03-29T00:25:01.523Z,90.00
2019-03-29T00:26:01.512Z,96.04
2019-03-29T00:27:01.546Z,135.00
2019-03-29T00:28:01.527Z,135.00
2019-03-29T00:29:01.498Z,135.00
2019-03-29T00:30:01.607Z,159.08
2019-03-29T00:31:01.535Z,180.00
2019-03-29T00:32:01.540Z,180.00
2019-03-29T00:33:01.598Z,180.00
2019-03-29T00:34:01.500Z,180.00
2019-03-29T00:35:01.557Z,180.00
2019-03-29T00:36:01.559Z,180.00
2019-03-29T00:37:01.537Z,180.00
2019-03-29T00:38:01.527Z,180.00
2019-03-29T00:39:01.547Z,90.02
2019-03-29T00:40:01.527Z,90.00
2019-03-29T00:41:01.536Z,90.00
2019-03-29T00:42:01.534Z,90.00
2019-03-29T00:43:01.545Z,90.00
2019-03-29T00:44:01.521Z,90.00
2019-03-29T00:45:01.570Z,90.00
2019-03-29T00:46:01.534Z,90.00
2019-03-29T00:47:01.558Z,81.10
2019-03-29T00:48:01.567Z,180.00
2019-03-29T00:49:01.532Z,180.00
2019-03-29T00:50:01.539Z,180.00
2019-03-29T00:51:01.557Z,148.09
2019-03-29T00:52:01.510Z,90.00
2019-03-29T00:53:01.534Z,90.00
2019-03-29T00:54:02.090Z,90.00
2019-03-29T00:55:01.539Z,94.83
2019-03-29T00:56:01.543Z,135.00
2019-03-29T00:57:01.581Z,123.17
2019-03-29T00:58:01.546Z,90.00
2019-03-29T00:59:01.573Z,90.00
2019-03-29T01:00:01.581Z,90.00
2019-03-29T01:01:01.536Z,90.00
2019-03-29T01:02:01.546Z,90.00
2019-03-29T01:03:01.583Z,147.54
2019-03-29T01:04:02.960Z,225.00
2019-03-29T01:05:01.553Z,225.00
2019-03-29T01:06:01.646Z,225.00
2019-03-29T01:07:01.543Z,163.61
2019-03-29T01:08:07.644Z,90.00
2019-03-29T01:09:01.585Z,90.00
2019-03-29T01:10:01.549Z,90.00
2019-03-29T01:11:01.582Z,120.60
2019-03-29T01:12:01.573Z,180.00
2019-03-29T01:13:01.532Z,180.00
2019-03-29T01:14:01.566Z,180.00
2019-03-29T01:15:01.556Z,180.00
2019-03-29T01:16:01.846Z,180.00
2019-03-29T01:17:01.563Z,180.00
2019-03-29T01:18:01.604Z,180.00
2019-03-29T01:19:01.554Z,180.00
2019-03-29T01:20:01.563Z,180.00
2019-03-29T01:21:01.615Z,180.00
2019-03-29T01:22:01.533Z,180.00
2019-03-29T01:23:01.587Z,180.00
2019-03-29T01:24:01.576Z,180.00
2019-03-29T01:25:01.566Z,180.00
2019-03-29T01:26:01.554Z,180.00
2019-03-29T01:27:01.577Z,180.00
2019-03-29T01:28:01.557Z,180.00
2019-03-29T01:29:01.582Z,180.00
2019-03-29T01:30:01.586Z,180.00
2019-03-29T01:31:01.540Z,180.00
2019-03-29T01:32:01.542Z,180.00
2019-03-29T01:33:01.592Z,180.00
2019-03-29T01:34:01.570Z,180.00
2019-03-29T01:35:01.578Z,180.00
2019-03-29T01:36:02.061Z,180.00
2019-03-29T01:37:01.550Z,180.00
2019-03-29T01:38:01.540Z,180.00
2019-03-29T01:39:01.579Z,180.00
2019-03-29T01:40:01.564Z,180.00
2019-03-29T01:41:01.621Z,180.00
2019-03-29T01:42:01.595Z,180.00
2019-03-29T01:43:01.571Z,180.00
2019-03-29T01:44:02.012Z,180.00
2019-03-29T01:45:01.595Z,180.00
2019-03-29T01:46:01.590Z,135.64
2019-03-29T01:47:01.561Z,90.00
2019-03-29T01:48:01.583Z,90.00
2019-03-29T01:49:01.568Z,90.00
2019-03-29T01:50:01.563Z,90.00
2019-03-29T01:51:02.040Z,90.00
2019-03-29T01:52:01.596Z,90.00
2019-03-29T01:53:01.602Z,90.00
2019-03-29T01:54:01.607Z,90.00
2019-03-29T01:55:01.585Z,90.00
2019-03-29T01:56:01.609Z,90.00
2019-03-29T01:57:01.618Z,90.00
2019-03-29T01:58:01.573Z,90.00
2019-03-29T01:59:01.604Z,90.00
2019-03-29T02:00:01.646Z,90.00
2019-03-29T02:01:02.318Z,90.00
2019-03-29T02:02:01.607Z,137.30
2019-03-29T02:03:01.620Z,225.00
2019-03-29T02:04:01.580Z,225.00
2019-03-29T02:05:01.625Z,225.00
2019-03-29T02:06:01.627Z,221.62
2019-03-29T02:07:01.596Z,225.00
2019-03-29T02:08:01.590Z,225.00
2019-03-29T02:09:01.625Z,225.00
2019-03-29T02:10:01.601Z,225.00
2019-03-29T02:11:01.605Z,225.00
2019-03-29T02:12:01.667Z,225.00
2019-03-29T02:13:01.581Z,217.85
2019-03-29T02:14:01.590Z,136.03
2019-03-29T02:15:01.608Z,135.00
2019-03-29T02:16:01.670Z,179.92
2019-03-29T02:17:01.621Z,180.00
2019-03-29T02:18:01.605Z,180.00
2019-03-29T02:19:01.577Z,180.00
2019-03-29T02:20:01.609Z,180.00
2019-03-29T02:21:01.614Z,180.00
2019-03-29T02:22:01.596Z,180.00
2019-03-29T02:23:01.586Z,180.00
2019-03-29T02:24:01.666Z,180.00
2019-03-29T02:25:01.586Z,180.00
2019-03-29T02:26:01.617Z,180.00
2019-03-29T02:27:01.619Z,216.05
2019-03-29T02:28:01.596Z,225.00
2019-03-29T02:29:01.573Z,225.00
2019-03-29T02:30:04.350Z,257.64
2019-03-29T02:31:01.629Z,270.00
2019-03-29T02:32:01.619Z,270.00
2019-03-29T02:33:01.638Z,270.00
2019-03-29T02:34:01.614Z,206.90
2019-03-29T02:35:01.652Z,180.00
2019-03-29T02:36:01.698Z,180.00
2019-03-29T02:37:02.310Z,180.00
2019-03-29T02:38:01.689Z,180.00
2019-03-29T02:39:01.715Z,255.53
2019-03-29T02:40:01.701Z,270.00
2019-03-29T02:41:01.719Z,270.00
2019-03-29T02:42:01.759Z,270.00
2019-03-29T02:43:01.734Z,355.31
2019-03-29T02:44:01.733Z,0.00
2019-03-29T02:45:03.330Z,0.00
2019-03-29T02:46:01.753Z,0.00
2019-03-29T02:47:01.831Z,0.00
2019-03-29T02:48:01.875Z,5.84
2019-03-29T02:49:01.816Z,209.93
2019-03-29T02:50:01.841Z,230.64
2019-03-29T02:51:01.845Z,315.00
2019-03-29T02:52:01.830Z,315.00
2019-03-29T02:53:01.881Z,315.00
2019-03-29T02:54:01.954Z,315.00
2019-03-29T02:55:01.870Z,315.00
2019-03-29T02:56:01.900Z,315.00
2019-03-29T02:57:01.961Z,271.61
2019-03-29T02:58:01.932Z,270.00
2019-03-29T02:59:01.926Z,270.00
2019-03-29T03:00:01.967Z,262.31
2019-03-29T03:01:01.951Z,225.00
2019-03-29T03:02:01.923Z,225.00
2019-03-29T03:03:02.009Z,148.13
2019-03-29T03:04:01.983Z,104.73
2019-03-29T03:05:01.972Z,90.00
2019-03-29T03:06:02.046Z,131.28
2019-03-29T03:07:02.034Z,180.00
2019-03-29T03:08:02.048Z,90.03
2019-03-29T03:09:13.017Z,114.96
2019-03-29T03:10:02.043Z,246.78
2019-03-29T03:11:02.049Z,340.66
2019-03-29T03:12:02.066Z,0.00
2019-03-29T03:13:02.029Z,23.12
2019-03-29T03:14:02.041Z,45.00
2019-03-29T03:15:02.077Z,24.25
2019-03-29T03:16:02.062Z,328.75
2019-03-29T03:17:02.191Z,90.00
2019-03-29T03:18:02.048Z,165.38
2019-03-29T03:19:02.041Z,211.72
2019-03-29T03:20:02.021Z,122.29
2019-03-29T03:21:02.092Z,135.00
2019-03-29T03:22:02.040Z,135.00
2019-03-29T03:23:02.072Z,315.00
2019-03-29T03:24:02.115Z,315.00
2019-03-29T03:25:02.020Z,315.00
2019-03-29T03:26:02.040Z,315.00
2019-03-29T03:27:02.087Z,315.00
2019-03-29T03:28:02.063Z,315.00
2019-03-29T03:29:02.063Z,315.00
2019-03-29T03:30:02.079Z,315.00
2019-03-29T03:31:02.038Z,315.00
2019-03-29T03:32:02.047Z,315.00
2019-03-29T03:33:02.137Z,315.00
2019-03-29T03:34:02.069Z,320.62
2019-03-29T03:35:02.055Z,133.90
2019-03-29T03:36:02.097Z,135.00
2019-03-29T03:37:02.047Z,135.00
2019-03-29T03:38:02.118Z,135.00
2019-03-29T03:39:02.115Z,135.00
2019-03-29T03:40:02.067Z,106.89
2019-03-29T03:41:02.080Z,90.00
2019-03-29T03:42:02.099Z,90.00
2019-03-29T03:43:02.057Z,90.00
2019-03-29T03:44:02.079Z,104.92
2019-03-29T03:45:02.103Z,225.00
2019-03-29T03:46:02.029Z,209.29
2019-03-29T03:47:02.076Z,90.00
2019-03-29T03:48:02.097Z,66.41
2019-03-29T03:49:02.083Z,45.00
2019-03-29T03:50:02.176Z,69.93
2019-03-29T03:51:02.073Z,131.82
2019-03-29T03:52:02.048Z,135.00
2019-03-29T03:53:02.071Z,135.00
2019-03-29T03:54:02.131Z,135.00
2019-03-29T03:55:02.080Z,176.03
2019-03-29T03:56:02.096Z,312.19
2019-03-29T03:57:02.086Z,315.00
2019-03-29T03:58:02.075Z,315.00
2019-03-29T03:59:02.068Z,315.00
2019-03-29T04:00:02.108Z,315.00
2019-03-29T04:01:02.067Z,277.41
2019-03-29T04:02:02.114Z,225.00
2019-03-29T04:03:02.086Z,225.00
2019-03-29T04:04:02.058Z,225.00
2019-03-29T04:05:02.091Z,225.00
2019-03-29T04:06:02.107Z,225.00
2019-03-29T04:07:02.066Z,225.00
2019-03-29T04:08:02.075Z,150.96
2019-03-29T04:09:02.096Z,59.42
2019-03-29T04:10:02.082Z,45.00
2019-03-29T04:11:02.071Z,78.84
2019-03-29T04:12:02.102Z,93.98
2019-03-29T04:13:02.067Z,55.00
2019-03-29T04:14:02.077Z,0.00
2019-03-29T04:15:02.177Z,33.17
2019-03-29T04:16:02.096Z,55.31
2019-03-29T04:17:02.085Z,316.36
2019-03-29T04:18:02.123Z,315.00
2019-03-29T04:19:02.065Z,315.00
2019-03-29T04:20:02.100Z,307.72
2019-03-29T04:21:02.153Z,210.59
2019-03-29T04:22:02.081Z,315.00
2019-03-29T04:23:02.096Z,315.00
2019-03-29T04:24:02.124Z,315.00
2019-03-29T04:25:02.100Z,359.99
2019-03-29T04:26:02.099Z,0.00
2019-03-29T04:27:02.111Z,0.00
2019-03-29T04:28:02.062Z,0.00
2019-03-29T04:29:04.611Z,0.00
2019-03-29T04:30:02.110Z,0.00
2019-03-29T04:31:02.063Z,0.00
2019-03-29T04:32:02.134Z,358.40
2019-03-29T04:33:02.178Z,315.00
2019-03-29T04:34:02.056Z,315.00
2019-03-29T04:35:02.109Z,315.00
2019-03-29T04:36:02.125Z,315.00
2019-03-29T04:37:02.115Z,315.00
2019-03-29T04:38:02.130Z,243.27
2019-03-29T04:39:02.095Z,225.00
2019-03-29T04:40:07.963Z,225.00
2019-03-29T04:41:02.120Z,265.62
2019-03-29T04:42:02.226Z,0.00
2019-03-29T04:43:02.087Z,0.00
2019-03-29T04:44:02.151Z,0.00
2019-03-29T04:45:02.146Z,0.00
2019-03-29T04:46:02.106Z,0.00
2019-03-29T04:47:02.130Z,0.00
2019-03-29T04:48:02.124Z,0.00
2019-03-29T04:49:02.100Z,0.00
2019-03-29T04:50:02.126Z,0.00
2019-03-29T04:51:02.102Z,0.00
2019-03-29T04:52:02.107Z,0.00
2019-03-29T04:53:02.094Z,0.00
2019-03-29T04:54:02.117Z,0.00
2019-03-29T04:55:02.112Z,0.00
2019-03-29T04:56:02.160Z,0.00
2019-03-29T04:57:02.127Z,0.00
2019-03-29T04:58:02.095Z,0.00
2019-03-29T04:59:02.152Z,0.00
2019-03-29T05:00:02.145Z,0.00
2019-03-29T05:01:02.103Z,0.00
2019-03-29T05:02:02.121Z,0.00
2019-03-29T05:03:02.152Z,0.00
2019-03-29T05:04:02.097Z,0.00
2019-03-29T05:05:02.108Z,0.00
2019-03-29T05:06:02.123Z,0.00
2019-03-29T05:07:02.121Z,0.00
2019-03-29T05:08:02.106Z,0.00
2019-03-29T05:09:02.129Z,0.00
2019-03-29T05:10:02.102Z,0.00
2019-03-29T05:11:02.132Z,0.00
2019-03-29T05:12:02.127Z,0.00
2019-03-29T05:13:02.101Z,0.00
2019-03-29T05:14:02.139Z,0.00
2019-03-29T05:15:02.131Z,0.00
2019-03-29T05:16:02.115Z,0.00
2019-03-29T05:17:02.099Z,0.00
2019-03-29T05:18:02.149Z,0.00
2019-03-29T05:19:02.127Z,0.00
2019-03-29T05:20:02.143Z,0.00
2019-03-29T05:21:02.134Z,0.00
2019-03-29T05:22:02.113Z,0.00
2019-03-29T05:23:02.126Z,0.00
2019-03-29T05:24:02.170Z,0.00
2019-03-29T05:25:02.142Z,0.00
2019-03-29T05:26:02.148Z,0.00
2019-03-29T05:27:02.141Z,0.00
2019-03-29T05:28:02.103Z,0.00
2019-03-29T05:29:02.088Z,0.00
2019-03-29T05:30:02.133Z,0.00
2019-03-29T05:31:02.128Z,0.00
2019-03-29T05:32:02.149Z,0.00
2019-03-29T05:33:02.155Z,0.00
2019-03-29T05:34:02.113Z,0.00
2019-03-29T05:35:02.140Z,0.00
2019-03-29T05:36:02.196Z,0.00
2019-03-29T05:37:02.145Z,0.00
2019-03-29T05:38:02.142Z,0.00
2019-03-29T05:39:02.161Z,0.00
2019-03-29T05:40:02.122Z,337.84
2019-03-29T05:41:02.121Z,315.00
2019-03-29T05:42:02.150Z,127.80
2019-03-29T05:43:02.139Z,90.00
2019-03-29T05:44:02.133Z,90.00
2019-03-29T05:45:02.159Z,98.57
2019-03-29T05:46:02.110Z,135.00
2019-03-29T05:47:02.145Z,135.00
2019-03-29T05:48:02.160Z,114.63
2019-03-29T05:49:02.148Z,90.00
2019-03-29T05:50:02.138Z,90.00
2019-03-29T05:51:02.142Z,90.00
2019-03-29T05:52:02.121Z,144.69
2019-03-29T05:53:02.173Z,225.00
2019-03-29T05:54:02.159Z,225.00
2019-03-29T05:55:02.162Z,255.63
2019-03-29T05:56:02.147Z,0.00
2019-03-29T05:57:02.194Z,291.67
2019-03-29T05:58:02.122Z,270.00
2019-03-29T05:59:02.152Z,270.00
2019-03-29T06:00:02.147Z,306.06
2019-03-29T06:01:02.143Z,315.00
2019-03-29T06:02:02.145Z,336.90
2019-03-29T06:03:02.176Z,0.00
2019-03-29T06:04:02.141Z,342.04
2019-03-29T06:05:02.154Z,315.00
2019-03-29T06:06:02.143Z,315.00
2019-03-29T06:07:02.161Z,315.00
2019-03-29T06:08:02.148Z,273.16
2019-03-29T06:09:02.183Z,270.00
2019-03-29T06:10:02.122Z,270.00
2019-03-29T06:11:02.212Z,296.21
2019-03-29T06:12:02.174Z,310.77
2019-03-29T06:13:02.143Z,299.95
2019-03-29T06:14:02.166Z,290.76
2019-03-29T06:15:02.164Z,335.84
2019-03-29T06:16:02.140Z,0.00
2019-03-29T06:17:02.143Z,37.59
2019-03-29T06:18:02.231Z,270.68
2019-03-29T06:19:02.134Z,167.78
2019-03-29T06:20:02.194Z,73.65
2019-03-29T06:21:02.183Z,0.00
2019-03-29T06:22:02.211Z,0.00
2019-03-29T06:23:02.181Z,0.00
2019-03-29T06:24:02.185Z,0.00
2019-03-29T06:25:02.153Z,0.00
2019-03-29T06:26:02.182Z,12.69
2019-03-29T06:27:02.174Z,135.00
2019-03-29T06:28:02.153Z,135.00
2019-03-29T06:29:02.176Z,135.00
2019-03-29T06:30:02.192Z,135.00
2019-03-29T06:31:02.151Z,135.00
2019-03-29T06:32:02.157Z,135.00
2019-03-29T06:33:02.191Z,135.00
2019-03-29T06:34:02.179Z,135.00
2019-03-29T06:35:02.213Z,135.00
2019-03-29T06:36:02.265Z,135.00
2019-03-29T06:37:02.174Z,135.00
2019-03-29T06:38:02.161Z,135.00
2019-03-29T06:39:02.181Z,160.03
2019-03-29T06:40:02.157Z,225.00
2019-03-29T06:41:03.470Z,210.99
2019-03-29T06:42:02.201Z,90.00
2019-03-29T06:43:02.173Z,90.00
2019-03-29T06:44:02.180Z,90.00
2019-03-29T06:45:02.192Z,90.00
2019-03-29T06:46:02.154Z,90.00
2019-03-29T06:47:02.206Z,90.00
2019-03-29T06:48:02.177Z,90.00
2019-03-29T06:49:02.168Z,90.00
2019-03-29T06:50:02.176Z,90.00
2019-03-29T06:51:02.223Z,90.00
2019-03-29T06:52:02.186Z,90.00
2019-03-29T06:53:02.194Z,90.00
2019-03-29T06:54:02.193Z,98.83
2019-03-29T06:55:02.155Z,180.00
2019-03-29T06:56:02.179Z,121.94
2019-03-29T06:57:02.189Z,90.00
2019-03-29T06:58:02.175Z,90.00
2019-03-29T06:59:02.240Z,90.00
2019-03-29T07:00:02.212Z,90.00
2019-03-29T07:01:02.158Z,90.00
2019-03-29T07:02:02.173Z,90.00
2019-03-29T07:03:02.204Z,90.00
2019-03-29T07:04:02.204Z,90.00
2019-03-29T07:05:02.237Z,90.00
2019-03-29T07:06:02.214Z,90.00
2019-03-29T07:07:02.177Z,90.00
2019-03-29T07:08:02.196Z,90.00
2019-03-29T07:09:02.206Z,90.00
2019-03-29T07:10:02.171Z,90.00
2019-03-29T07:11:16.249Z,90.00
2019-03-29T07:12:02.192Z,90.00
2019-03-29T07:13:02.187Z,90.00
2019-03-29T07:14:02.164Z,90.00
2019-03-29T07:15:02.209Z,90.00
2019-03-29T07:16:02.200Z,90.00
2019-03-29T07:17:02.172Z,90.00
2019-03-29T07:18:02.218Z,90.00
2019-03-29T07:19:04.835Z,90.00
2019-03-29T07:20:02.230Z,115.94
2019-03-29T07:21:02.212Z,270.00
2019-03-29T07:22:02.179Z,270.00
2019-03-29T07:23:02.184Z,273.31
2019-03-29T07:24:02.234Z,90.00
2019-03-29T07:25:02.210Z,55.01
2019-03-29T07:26:02.204Z,342.88
2019-03-29T07:27:02.302Z,271.38
2019-03-29T07:28:02.217Z,356.27
2019-03-29T07:29:02.239Z,333.65
2019-03-29T07:30:02.237Z,270.00
2019-03-29T07:31:02.171Z,234.58
2019-03-29T07:32:02.222Z,244.65
2019-03-29T07:33:02.236Z,270.00
2019-03-29T07:34:02.186Z,270.00
2019-03-29T07:35:02.225Z,270.00
2019-03-29T07:36:02.214Z,260.99
2019-03-29T07:37:05.567Z,180.00
2019-03-29T07:38:02.292Z,316.44
2019-03-29T07:39:02.288Z,315.00
2019-03-29T07:40:02.173Z,315.00
2019-03-29T07:41:02.224Z,315.00
2019-03-29T07:42:02.226Z,92.96
2019-03-29T07:43:02.186Z,123.30
2019-03-29T07:44:02.237Z,109.50
2019-03-29T07:45:02.233Z,135.00
2019-03-29T07:46:02.184Z,136.11
2019-03-29T07:47:02.203Z,95.60
2019-03-29T07:48:02.227Z,84.36
2019-03-29T07:49:02.211Z,22.88
2019-03-29T07:50:02.227Z,92.55
2019-03-29T07:51:02.309Z,91.28
2019-03-29T07:52:02.188Z,143.65
2019-03-29T07:53:02.224Z,342.09
2019-03-29T07:54:02.222Z,77.47
2019-03-29T07:55:02.199Z,195.38
2019-03-29T07:56:02.256Z,249.34
2019-03-29T07:57:02.232Z,270.37
2019-03-29T07:58:02.221Z,271.07
2019-03-29T07:59:02.248Z,268.52
2019-03-29T08:00:02.248Z,281.34
2019-03-29T08:01:02.194Z,196.58
2019-03-29T08:02:02.455Z,28.71
2019-03-29T08:03:02.308Z,343.21
2019-03-29T08:04:02.238Z,0.00
2019-03-29T08:05:02.242Z,353.14
2019-03-29T08:06:02.298Z,4.78
2019-03-29T08:07:02.224Z,45.00
2019-03-29T08:08:02.233Z,45.00
2019-03-29T08:09:02.273Z,45.00
2019-03-29T08:10:04.096Z,45.00
2019-03-29T08:11:02.235Z,242.65
2019-03-29T08:12:02.258Z,270.84
2019-03-29T08:13:02.200Z,264.54
2019-03-29T08:14:02.270Z,243.62
2019-03-29T08:15:02.269Z,269.35
2019-03-29T08:16:02.218Z,277.10
2019-03-29T08:17:02.247Z,276.39
2019-03-29T08:18:02.255Z,269.05
2019-03-29T08:19:02.210Z,271.62
2019-03-29T08:20:36.502Z,273.01
2019-03-29T08:21:02.260Z,267.20
2019-03-29T08:22:02.235Z,262.18
2019-03-29T08:23:02.271Z,273.27
2019-03-29T08:24:02.309Z,267.23
2019-03-29T08:25:02.236Z,271.47
2019-03-29T08:26:02.247Z,211.77
2019-03-29T08:27:02.242Z,274.55
2019-03-29T08:28:02.207Z,263.42
2019-03-29T08:29:02.256Z,272.92
2019-03-29T08:30:02.277Z,268.07
2019-03-29T08:31:02.244Z,235.88
2019-03-29T08:32:02.276Z,318.89
2019-03-29T08:33:02.262Z,354.86
2019-03-29T08:34:02.241Z,290.82
2019-03-29T08:35:02.271Z,285.81
2019-03-29T08:36:02.283Z,295.10
2019-03-29T08:37:02.263Z,282.99
2019-03-29T08:38:05.867Z,271.09
2019-03-29T08:39:02.255Z,260.92
2019-03-29T08:40:02.264Z,268.86
2019-03-29T08:41:02.286Z,268.79
2019-03-29T08:42:02.298Z,279.90
2019-03-29T08:43:02.322Z,323.46
2019-03-29T08:44:02.261Z,332.07
2019-03-29T08:45:02.307Z,76.57
2019-03-29T08:46:02.231Z,104.43
2019-03-29T08:47:02.263Z,127.18
2019-03-29T08:48:02.474Z,116.97
2019-03-29T08:49:02.251Z,135.00
2019-03-29T08:50:02.297Z,268.77
2019-03-29T08:51:02.267Z,268.56
2019-03-29T08:52:02.227Z,283.56
2019-03-29T08:53:02.278Z,94.41
2019-03-29T08:54:02.300Z,291.84
2019-03-29T08:55:02.303Z,42.98
2019-03-29T08:56:02.298Z,211.26
2019-03-29T08:57:02.263Z,90.00
2019-03-29T08:58:02.284Z,79.46
2019-03-29T08:59:02.272Z,243.44
2019-03-29T09:00:02.280Z,273.45
2019-03-29T09:01:02.242Z,282.22
2019-03-29T09:02:02.262Z,298.18
2019-03-29T09:03:02.273Z,271.55
2019-03-29T09:04:05.641Z,253.80
2019-03-29T09:05:02.276Z,271.82
2019-03-29T09:06:02.286Z,325.65
2019-03-29T09:07:02.287Z,45.05
2019-03-29T09:08:02.270Z,102.82
2019-03-29T09:09:02.286Z,49.31
2019-03-29T09:10:02.251Z,46.94
2019-03-29T09:11:02.291Z,115.85
2019-03-29T09:12:13.785Z,103.74
2019-03-29T09:13:04.415Z,45.00
2019-03-29T09:14:02.318Z,86.91
2019-03-29T09:15:04.104Z,90.00
2019-03-29T09:16:02.274Z,12.92
2019-03-29T09:17:02.310Z,285.25
2019-03-29T09:18:02.354Z,289.28
2019-03-29T09:19:02.271Z,353.73
2019-03-29T09:20:02.270Z,58.15
2019-03-29T09:21:02.296Z,70.16
2019-03-29T09:22:02.264Z,288.63
2019-03-29T09:23:02.279Z,339.33
2019-03-29T09:24:02.285Z,39.86
2019-03-29T09:25:02.267Z,326.96
2019-03-29T09:26:02.300Z,24.64
2019-03-29T09:27:02.315Z,310.92
2019-03-29T09:28:02.258Z,271.50
2019-03-29T09:29:02.316Z,279.36
2019-03-29T09:30:04.978Z,315.35
2019-03-29T09:31:02.277Z,13.88
2019-03-29T09:32:02.317Z,181.31
2019-03-29T09:33:02.286Z,217.59
2019-03-29T09:34:02.257Z,279.51
2019-03-29T09:35:02.310Z,350.90
2019-03-29T09:36:05.020Z,353.37
2019-03-29T09:37:02.298Z,269.40
2019-03-29T09:38:02.319Z,303.06
2019-03-29T09:39:02.351Z,289.34
2019-03-29T09:40:02.313Z,294.11
2019-03-29T09:41:02.357Z,241.42
2019-03-29T09:42:02.364Z,130.33
2019-03-29T09:43:08.019Z,271.67
2019-03-29T09:44:02.356Z,271.43
2019-03-29T09:45:02.409Z,334.68
2019-03-29T09:46:03.426Z,315.00
2019-03-29T09:47:02.410Z,292.73
2019-03-29T09:48:02.440Z,267.66
2019-03-29T09:49:02.366Z,270.00
2019-03-29T09:50:02.372Z,226.40
2019-03-29T09:51:02.384Z,270.06
2019-03-29T09:52:02.368Z,267.39
2019-03-29T09:53:02.386Z,281.35
2019-03-29T09:54:02.405Z,261.55
2019-03-29T09:55:02.388Z,270.00
2019-03-29T09:56:02.381Z,316.50
2019-03-29T09:57:02.390Z,291.94
2019-03-29T09:58:02.368Z,288.17
2019-03-29T09:59:02.394Z,274.55
2019-03-29T10:00:02.367Z,273.94
2019-03-29T10:01:02.370Z,270.32
2019-03-29T10:02:02.398Z,272.76
2019-03-29T10:03:02.396Z,292.69
2019-03-29T10:04:02.379Z,338.50
2019-03-29T10:05:02.420Z,318.97
2019-03-29T10:06:02.396Z,330.68
2019-03-29T10:07:02.336Z,246.11
2019-03-29T10:08:02.376Z,174.80
2019-03-29T10:09:02.411Z,299.29
2019-03-29T10:10:02.511Z,0.00
2019-03-29T10:11:02.387Z,0.00
2019-03-29T10:12:02.407Z,353.04
2019-03-29T10:13:02.345Z,312.22
2019-03-29T10:14:02.386Z,243.58
2019-03-29T10:15:02.435Z,277.08
2019-03-29T10:16:02.425Z,258.69
2019-03-29T10:17:02.407Z,271.43
2019-03-29T10:18:02.456Z,273.43
2019-03-29T10:19:02.359Z,291.07
2019-03-29T10:20:02.436Z,339.51
2019-03-29T10:21:02.448Z,359.21
2019-03-29T10:22:02.401Z,315.77
2019-03-29T10:23:02.410Z,271.13
2019-03-29T10:24:02.413Z,263.01
2019-03-29T10:25:02.802Z,264.84
2019-03-29T10:26:02.398Z,239.00
2019-03-29T10:27:02.462Z,273.57
2019-03-29T10:28:02.423Z,276.12
2019-03-29T10:29:02.413Z,3.88
2019-03-29T10:30:02.439Z,274.00
2019-03-29T10:31:02.412Z,220.11
2019-03-29T10:32:05.483Z,240.67
2019-03-29T10:33:02.447Z,348.78
2019-03-29T10:34:02.404Z,276.02
2019-03-29T10:35:02.428Z,272.12
2019-03-29T10:36:02.449Z,277.99
2019-03-29T10:37:02.421Z,270.02
2019-03-29T10:38:02.441Z,299.68
2019-03-29T10:39:02.423Z,308.80
2019-03-29T10:40:02.390Z,315.00
2019-03-29T10:41:02.423Z,300.13
2019-03-29T10:42:02.402Z,313.99
2019-03-29T10:43:02.397Z,315.00
2019-03-29T10:44:02.434Z,315.00
2019-03-29T10:45:02.430Z,280.58
2019-03-29T10:46:02.410Z,257.83
2019-03-29T10:47:02.435Z,203.91
2019-03-29T10:48:02.439Z,274.07
2019-03-29T10:49:02.423Z,281.26
2019-03-29T10:50:02.452Z,297.79
2019-03-29T10:51:02.440Z,159.24
2019-03-29T10:52:02.422Z,190.49
2019-03-29T10:53:02.449Z,273.22
2019-03-29T10:54:02.461Z,270.01
2019-03-29T10:55:02.421Z,248.77
2019-03-29T10:56:02.458Z,268.66
2019-03-29T10:57:02.433Z,264.68
2019-03-29T10:58:02.411Z,271.94
2019-03-29T10:59:02.430Z,274.12
2019-03-29T11:00:02.429Z,273.73
2019-03-29T11:01:02.446Z,279.11
2019-03-29T11:02:02.429Z,31.87
2019-03-29T11:03:02.468Z,285.20
2019-03-29T11:04:02.435Z,271.08
2019-03-29T11:05:02.446Z,252.85
2019-03-29T11:06:02.495Z,284.88
2019-03-29T11:07:02.410Z,272.98
2019-03-29T11:08:02.466Z,272.01
2019-03-29T11:09:02.449Z,300.38
2019-03-29T11:10:02.397Z,320.50
2019-03-29T11:11:02.443Z,304.74
2019-03-29T11:12:02.457Z,327.47
2019-03-29T11:13:12.607Z,289.25
2019-03-29T11:14:02.442Z,210.85
2019-03-29T11:15:02.441Z,292.02
2019-03-29T11:16:02.420Z,280.22
2019-03-29T11:17:02.465Z,287.22
2019-03-29T11:18:02.500Z,280.13
2019-03-29T11:19:02.408Z,203.26
2019-03-29T11:20:02.463Z,293.40
2019-03-29T11:21:02.451Z,123.10
2019-03-29T11:22:02.438Z,155.00
2019-03-29T11:23:02.459Z,212.18
2019-03-29T11:24:02.497Z,211.93
2019-03-29T11:25:02.437Z,279.53
2019-03-29T11:26:02.480Z,273.53
2019-03-29T11:27:02.451Z,223.15
2019-03-29T11:28:02.439Z,127.24
2019-03-29T11:29:02.458Z,96.68
2019-03-29T11:30:02.479Z,196.98
2019-03-29T11:31:02.471Z,106.32
2019-03-29T11:32:02.442Z,102.49
2019-03-29T11:33:02.472Z,92.64
2019-03-29T11:34:02.450Z,91.58
2019-03-29T11:35:02.440Z,92.84
2019-03-29T11:36:02.543Z,95.44
2019-03-29T11:37:02.471Z,96.04
2019-03-29T11:38:02.441Z,95.60
2019-03-29T11:39:02.484Z,103.65
2019-03-29T11:40:02.456Z,210.33
2019-03-29T11:41:02.471Z,130.65
2019-03-29T11:42:03.699Z,113.81
2019-03-29T11:43:02.476Z,106.19
2019-03-29T11:44:02.497Z,104.45
2019-03-29T11:45:02.531Z,112.09
2019-03-29T11:46:02.426Z,148.21
2019-03-29T11:47:02.491Z,113.69
2019-03-29T11:48:08.898Z,108.28
2019-03-29T11:49:02.437Z,269.96
2019-03-29T11:50:02.495Z,252.60
2019-03-29T11:51:02.480Z,252.47
2019-03-29T11:52:02.492Z,80.18
2019-03-29T11:53:02.485Z,277.24
2019-03-29T11:54:02.512Z,263.96
2019-03-29T11:55:02.449Z,303.22
2019-03-29T11:56:02.519Z,284.81
2019-03-29T11:57:02.476Z,177.08
2019-03-29T11:58:02.455Z,322.98
2019-03-29T11:59:02.506Z,324.33
2019-03-29T12:00:02.512Z,314.21
2019-03-29T12:01:05.393Z,317.50
2019-03-29T12:02:02.517Z,322.95
2019-03-29T12:03:02.504Z,44.01
2019-03-29T12:04:02.480Z,359.81
2019-03-29T12:05:02.510Z,288.38
2019-03-29T12:06:02.521Z,313.22
2019-03-29T12:07:03.659Z,291.07
2019-03-29T12:08:02.492Z,217.47
2019-03-29T12:09:02.502Z,138.88
2019-03-29T12:10:02.450Z,133.83
2019-03-29T12:11:02.528Z,56.22
2019-03-29T12:12:02.588Z,292.08
2019-03-29T12:13:02.468Z,300.92
2019-03-29T12:14:04.958Z,289.82
2019-03-29T12:15:02.545Z,268.19
2019-03-29T12:16:02.462Z,268.21
2019-03-29T12:17:02.519Z,231.48
2019-03-29T12:18:02.536Z,237.31
2019-03-29T12:19:02.493Z,144.66
2019-03-29T12:20:02.501Z,247.36
2019-03-29T12:21:02.506Z,243.79
2019-03-29T12:22:02.492Z,108.98
2019-03-29T12:23:02.548Z,124.28
2019-03-29T12:24:02.540Z,95.30
2019-03-29T12:25:02.469Z,225.10
2019-03-29T12:26:02.529Z,295.17
2019-03-29T12:27:02.517Z,289.05
2019-03-29T12:28:02.483Z,260.08
2019-03-29T12:29:02.519Z,141.43
2019-03-29T12:30:02.575Z,100.83
2019-03-29T12:31:02.493Z,112.46
2019-03-29T12:32:02.513Z,186.55
2019-03-29T12:33:02.525Z,347.91
2019-03-29T12:34:02.490Z,245.67
2019-03-29T12:35:02.506Z,180.00
2019-03-29T12:36:02.559Z,148.30
2019-03-29T12:37:02.513Z,90.00
2019-03-29T12:38:02.524Z,99.61